sensor_id;sensor_type;location;lat;lon;timestamp;pressure;altitude;pressure_sealevel;temperature;humidity
69187;BME280;56301;56.864;60.554;2023-01-10T00:01:29;100005.88;;;25.17;29.91
69187;BME280;56301;56.864;60.554;2023-01-10T00:03:51;100005.88;;;25.17;29.64
69187;BME280;56301;56.864;60.554;2023-01-10T00:06:14;100019.44;;;25.17;29.83
69187;BME280;56301;56.864;60.554;2023-01-10T00:08:36;100005.88;;;25.17;30.01
69187;BME280;56301;56.864;60.554;2023-01-10T00:10:59;100016.72;;;25.17;30.41
69187;BME280;56301;56.864;60.554;2023-01-10T00:13:21;100010.28;;;25.18;30.27
69187;BME280;56301;56.864;60.554;2023-01-10T00:15:44;100005.88;;;25.17;30.61
69187;BME280;56301;56.864;60.554;2023-01-10T00:18:06;100004.19;;;25.16;29.75
69187;BME280;56301;56.864;60.554;2023-01-10T00:20:29;100011.44;;;25.16;30.08
69187;BME280;56301;56.864;60.554;2023-01-10T00:22:51;100016.00;;;25.15;30.21
69187;BME280;56301;56.864;60.554;2023-01-10T00:25:14;100004.19;;;25.16;30.27
69187;BME280;56301;56.864;60.554;2023-01-10T00:27:36;100017.88;;;25.15;29.62
69187;BME280;56301;56.864;60.554;2023-01-10T00:29:58;100010.75;;;25.14;29.78
69187;BME280;56301;56.864;60.554;2023-01-10T00:32:21;99999.09;;;25.13;29.76
69187;BME280;56301;56.864;60.554;2023-01-10T00:34:44;100020.75;;;25.13;29.33
69187;BME280;56301;56.864;60.554;2023-01-10T00:37:07;100015.34;;;25.13;29.73
69187;BME280;56301;56.864;60.554;2023-01-10T00:39:29;100034.28;;;25.13;29.82
69187;BME280;56301;56.864;60.554;2023-01-10T00:41:52;100035.13;;;25.14;29.61
69187;BME280;56301;56.864;60.554;2023-01-10T00:44:14;100047.84;;;25.13;29.61
69187;BME280;56301;56.864;60.554;2023-01-10T00:46:36;100026.16;;;25.13;29.66
69187;BME280;56301;56.864;60.554;2023-01-10T00:48:59;100045.97;;;25.14;29.68
69187;BME280;56301;56.864;60.554;2023-01-10T00:51:21;100030.56;;;25.14;29.41
69187;BME280;56301;56.864;60.554;2023-01-10T00:53:44;100062.34;;;25.12;29.39
69187;BME280;56301;56.864;60.554;2023-01-10T00:56:06;100042.72;;;25.10;29.25
69187;BME280;56301;56.864;60.554;2023-01-10T00:58:29;100061.78;;;25.09;28.95
69187;BME280;56301;56.864;60.554;2023-01-10T01:00:51;100042.16;;;25.07;28.87
69187;BME280;56301;56.864;60.554;2023-01-10T01:03:14;100043.16;;;25.06;30.14
69187;BME280;56301;56.864;60.554;2023-01-10T01:05:40;100063.50;;;25.10;29.66
69187;BME280;56301;56.864;60.554;2023-01-10T01:08:03;100059.81;;;25.11;29.68
69187;BME280;56301;56.864;60.554;2023-01-10T01:10:25;100067.38;;;25.07;29.32
69187;BME280;56301;56.864;60.554;2023-01-10T01:12:48;100076.94;;;25.02;28.59
69187;BME280;56301;56.864;60.554;2023-01-10T01:15:10;100048.72;;;25.04;29.37
69187;BME280;56301;56.864;60.554;2023-01-10T01:17:33;100050.41;;;25.05;28.75
69187;BME280;56301;56.864;60.554;2023-01-10T01:19:55;100058.53;;;25.05;29.36
69187;BME280;56301;56.864;60.554;2023-01-10T01:22:18;100049.56;;;25.05;28.40
69187;BME280;56301;56.864;60.554;2023-01-10T01:24:41;100073.09;;;25.04;28.90
69187;BME280;56301;56.864;60.554;2023-01-10T01:27:03;100048.03;;;25.02;28.61
69187;BME280;56301;56.864;60.554;2023-01-10T01:29:25;100061.09;;;25.07;28.92
69187;BME280;56301;56.864;60.554;2023-01-10T01:31:48;100066.63;;;25.15;29.21
69187;BME280;56301;56.864;60.554;2023-01-10T01:34:10;100065.78;;;25.14;29.48
69187;BME280;56301;56.864;60.554;2023-01-10T01:36:33;100043.41;;;25.12;29.75
69187;BME280;56301;56.864;60.554;2023-01-10T01:38:55;100056.28;;;25.10;29.46
69187;BME280;56301;56.864;60.554;2023-01-10T01:41:18;100058.09;;;25.10;28.62
69187;BME280;56301;56.864;60.554;2023-01-10T01:46:21;100056.94;;;25.12;29.70
69187;BME280;56301;56.864;60.554;2023-01-10T01:48:44;100065.78;;;25.14;30.04
69187;BME280;56301;56.864;60.554;2023-01-10T01:51:12;100065.78;;;25.14;28.02
69187;BME280;56301;56.864;60.554;2023-01-10T01:53:48;100057.09;;;25.29;28.44
69187;BME280;56301;56.864;60.554;2023-01-10T01:56:14;100051.38;;;25.32;27.88
69187;BME280;56301;56.864;60.554;2023-01-10T01:58:43;100082.16;;;25.31;27.52
69187;BME280;56301;56.864;60.554;2023-01-10T02:01:09;100080.66;;;25.28;28.28
69187;BME280;56301;56.864;60.554;2023-01-10T02:03:32;100079.09;;;25.26;28.75
69187;BME280;56301;56.864;60.554;2023-01-10T02:05:54;100092.63;;;25.26;28.38
69187;BME280;56301;56.864;60.554;2023-01-10T02:08:17;100097.34;;;25.24;27.97
69187;BME280;56301;56.864;60.554;2023-01-10T02:10:53;100088.22;;;25.25;28.44
69187;BME280;56301;56.864;60.554;2023-01-10T02:13:17;100065.53;;;25.26;28.26
69187;BME280;56301;56.864;60.554;2023-01-10T02:15:40;100055.19;;;25.21;27.78
69187;BME280;56301;56.864;60.554;2023-01-10T02:18:03;100049.91;;;25.19;28.76
69187;BME280;56301;56.864;60.554;2023-01-10T02:20:25;100071.13;;;25.24;28.69
69187;BME280;56301;56.864;60.554;2023-01-10T02:37:52;100080.94;;;25.43;30.10
69187;BME280;56301;56.864;60.554;2023-01-10T02:40:21;100095.16;;;25.45;29.42
69187;BME280;56301;56.864;60.554;2023-01-10T02:42:51;100098.03;;;25.43;29.21
69187;BME280;56301;56.864;60.554;2023-01-10T02:45:37;100077.81;;;25.38;28.02
69187;BME280;56301;56.864;60.554;2023-01-10T02:48:01;100095.72;;;25.31;28.30
69187;BME280;56301;56.864;60.554;2023-01-10T02:50:27;100099.59;;;25.28;28.14
69187;BME280;56301;56.864;60.554;2023-01-10T02:52:50;100095.03;;;25.29;28.84
69187;BME280;56301;56.864;60.554;2023-01-10T02:55:13;100100.44;;;25.29;28.72
69187;BME280;56301;56.864;60.554;2023-01-10T03:00:29;100095.03;;;25.29;28.81
69187;BME280;56301;56.864;60.554;2023-01-10T03:05:22;100108.19;;;25.24;28.15
69187;BME280;56301;56.864;60.554;2023-01-10T03:07:58;100127.31;;;25.22;28.53
69187;BME280;56301;56.864;60.554;2023-01-10T03:10:25;100127.47;;;25.20;28.59
69187;BME280;56301;56.864;60.554;2023-01-10T03:12:53;100136.56;;;25.19;28.27
69187;BME280;56301;56.864;60.554;2023-01-10T03:15:18;100136.56;;;25.19;28.79
69187;BME280;56301;56.864;60.554;2023-01-10T03:17:42;100141.31;;;25.17;29.01
69187;BME280;56301;56.864;60.554;2023-01-10T03:20:06;100126.94;;;25.17;28.94
69187;BME280;56301;56.864;60.554;2023-01-10T03:22:29;100129.63;;;25.17;28.43
69187;BME280;56301;56.864;60.554;2023-01-10T03:24:52;100121.66;;;25.15;29.23
69187;BME280;56301;56.864;60.554;2023-01-10T03:29:56;100153.84;;;25.18;29.96
69187;BME280;56301;56.864;60.554;2023-01-10T03:32:22;100156.72;;;25.17;29.30
69187;BME280;56301;56.864;60.554;2023-01-10T03:34:47;100155.00;;;25.16;28.57
69187;BME280;56301;56.864;60.554;2023-01-10T03:37:13;100155.00;;;25.16;28.47
69187;BME280;56301;56.864;60.554;2023-01-10T03:39:49;100173.28;;;25.14;28.53
69187;BME280;56301;56.864;60.554;2023-01-10T03:44:44;100167.00;;;25.13;28.95
69187;BME280;56301;56.864;60.554;2023-01-10T03:49:40;100149.91;;;25.13;28.80
69187;BME280;56301;56.864;60.554;2023-01-10T03:52:04;100144.50;;;25.13;28.39
69187;BME280;56301;56.864;60.554;2023-01-10T03:54:27;100167.00;;;25.13;28.70
69187;BME280;56301;56.864;60.554;2023-01-10T03:56:50;100163.44;;;25.13;28.78
69187;BME280;56301;56.864;60.554;2023-01-10T03:59:12;100165.28;;;25.12;28.83
69187;BME280;56301;56.864;60.554;2023-01-10T04:01:35;100169.72;;;25.13;29.22
69187;BME280;56301;56.864;60.554;2023-01-10T04:03:57;100159.72;;;25.14;28.28
69187;BME280;56301;56.864;60.554;2023-01-10T04:06:20;100173.28;;;25.14;29.10
69187;BME280;56301;56.864;60.554;2023-01-10T04:08:42;100171.41;;;25.14;28.55
69187;BME280;56301;56.864;60.554;2023-01-10T04:11:04;100181.53;;;25.12;28.13
69187;BME280;56301;56.864;60.554;2023-01-10T04:13:27;100179.53;;;25.14;27.85
69187;BME280;56301;56.864;60.554;2023-01-10T04:15:49;100175.13;;;25.13;27.75
69187;BME280;56301;56.864;60.554;2023-01-10T04:18:12;100181.03;;;24.99;27.58
69187;BME280;56301;56.864;60.554;2023-01-10T04:20:34;100197.56;;;24.96;27.57
69187;BME280;56301;56.864;60.554;2023-01-10T04:22:56;100190.75;;;24.92;27.25
69187;BME280;56301;56.864;60.554;2023-01-10T04:25:22;100188.63;;;24.86;26.97
69187;BME280;56301;56.864;60.554;2023-01-10T04:27:44;100206.19;;;24.82;26.90
69187;BME280;56301;56.864;60.554;2023-01-10T04:30:07;100226.16;;;24.81;26.67
69187;BME280;56301;56.864;60.554;2023-01-10T04:32:30;100198.34;;;24.79;26.66
69187;BME280;56301;56.864;60.554;2023-01-10T04:34:52;100220.19;;;24.77;26.93
69187;BME280;56301;56.864;60.554;2023-01-10T04:37:15;100213.03;;;24.76;26.84
69187;BME280;56301;56.864;60.554;2023-01-10T04:39:37;100216.06;;;24.73;26.16
69187;BME280;56301;56.864;60.554;2023-01-10T04:42:00;100210.78;;;24.71;26.29
69187;BME280;56301;56.864;60.554;2023-01-10T04:44:23;100201.97;;;24.69;26.14
69187;BME280;56301;56.864;60.554;2023-01-10T04:46:45;100202.97;;;24.68;25.87
69187;BME280;56301;56.864;60.554;2023-01-10T04:49:08;100192.97;;;24.69;26.62
69187;BME280;56301;56.864;60.554;2023-01-10T04:51:30;100203.97;;;24.67;26.67
69187;BME280;56301;56.864;60.554;2023-01-10T04:53:53;100228.31;;;24.67;26.42
69187;BME280;56301;56.864;60.554;2023-01-10T04:56:16;100238.13;;;24.68;26.24
69187;BME280;56301;56.864;60.554;2023-01-10T04:58:39;100246.41;;;24.67;26.08
69187;BME280;56301;56.864;60.554;2023-01-10T05:01:07;100242.88;;;24.66;26.28
69187;BME280;56301;56.864;60.554;2023-01-10T05:03:30;100250.13;;;24.66;26.12
69187;BME280;56301;56.864;60.554;2023-01-10T05:05:52;100285.31;;;24.66;26.29
69187;BME280;56301;56.864;60.554;2023-01-10T05:08:15;100269.94;;;24.66;26.29
69187;BME280;56301;56.864;60.554;2023-01-10T05:10:37;100265.50;;;24.65;26.44
69187;BME280;56301;56.864;60.554;2023-01-10T05:13:00;100280.88;;;24.65;26.23
69187;BME280;56301;56.864;60.554;2023-01-10T05:15:22;100273.78;;;24.64;26.04
69187;BME280;56301;56.864;60.554;2023-01-10T05:17:45;100309.81;;;24.64;26.66
69187;BME280;56301;56.864;60.554;2023-01-10T05:20:08;100296.28;;;24.64;26.15
69187;BME280;56301;56.864;60.554;2023-01-10T05:22:30;100283.75;;;24.63;26.49
69187;BME280;56301;56.864;60.554;2023-01-10T05:24:53;100287.47;;;24.62;26.62
69187;BME280;56301;56.864;60.554;2023-01-10T05:27:15;100276.63;;;24.62;26.08
69187;BME280;56301;56.864;60.554;2023-01-10T05:29:38;100284.75;;;24.62;25.36
69187;BME280;56301;56.864;60.554;2023-01-10T05:32:00;100279.47;;;24.61;26.53
69187;BME280;56301;56.864;60.554;2023-01-10T05:34:23;100294.72;;;24.62;25.16
69187;BME280;56301;56.864;60.554;2023-01-10T05:36:46;100289.44;;;24.60;25.60
69187;BME280;56301;56.864;60.554;2023-01-10T05:39:08;100288.59;;;24.60;25.51
69187;BME280;56301;56.864;60.554;2023-01-10T05:41:31;100292.16;;;24.60;25.86
69187;BME280;56301;56.864;60.554;2023-01-10T05:43:53;100303.84;;;24.61;25.87
69187;BME280;56301;56.864;60.554;2023-01-10T05:46:16;100299.44;;;24.60;25.58
69187;BME280;56301;56.864;60.554;2023-01-10T05:48:38;100298.56;;;24.59;26.00
69187;BME280;56301;56.864;60.554;2023-01-10T05:51:01;100324.63;;;24.60;25.75
69187;BME280;56301;56.864;60.554;2023-01-10T05:53:23;100321.94;;;24.60;25.77
69187;BME280;56301;56.864;60.554;2023-01-10T05:55:54;100335.47;;;24.60;25.99
69187;BME280;56301;56.864;60.554;2023-01-10T05:58:17;100333.75;;;24.59;25.85
69187;BME280;56301;56.864;60.554;2023-01-10T06:00:39;100333.03;;;24.57;25.86
69187;BME280;56301;56.864;60.554;2023-01-10T06:03:02;100326.63;;;24.58;25.46
69187;BME280;56301;56.864;60.554;2023-01-10T06:05:24;100329.31;;;24.58;25.80
69187;BME280;56301;56.864;60.554;2023-01-10T06:07:47;100316.78;;;24.57;25.72
69187;BME280;56301;56.864;60.554;2023-01-10T06:10:09;100312.41;;;24.56;25.63
69187;BME280;56301;56.864;60.554;2023-01-10T06:12:32;100312.41;;;24.56;26.22
69187;BME280;56301;56.864;60.554;2023-01-10T06:14:55;100302.41;;;24.57;25.67
69187;BME280;56301;56.864;60.554;2023-01-10T06:17:17;100313.41;;;24.55;25.68
69187;BME280;56301;56.864;60.554;2023-01-10T06:19:39;100313.41;;;24.55;25.83
69187;BME280;56301;56.864;60.554;2023-01-10T06:22:02;100338.44;;;24.57;26.07
69187;BME280;56301;56.864;60.554;2023-01-10T06:24:24;100350.84;;;24.60;25.91
69187;BME280;56301;56.864;60.554;2023-01-10T06:26:47;100356.94;;;24.62;25.66
69187;BME280;56301;56.864;60.554;2023-01-10T06:29:09;100374.06;;;24.62;25.74
69187;BME280;56301;56.864;60.554;2023-01-10T06:31:32;100375.78;;;24.63;25.81
69187;BME280;56301;56.864;60.554;2023-01-10T06:33:54;100370.34;;;24.63;25.85
69187;BME280;56301;56.864;60.554;2023-01-10T06:36:17;100396.41;;;24.64;25.80
69187;BME280;56301;56.864;60.554;2023-01-10T06:38:39;100389.16;;;24.65;25.52
69187;BME280;56301;56.864;60.554;2023-01-10T06:41:02;100402.56;;;24.66;25.78
69187;BME280;56301;56.864;60.554;2023-01-10T06:43:24;100396.13;;;24.67;26.02
69187;BME280;56301;56.864;60.554;2023-01-10T06:45:47;100399.69;;;24.68;25.56
69187;BME280;56301;56.864;60.554;2023-01-10T06:48:10;100415.81;;;24.69;25.67
69187;BME280;56301;56.864;60.554;2023-01-10T06:50:32;100421.91;;;24.71;26.21
69187;BME280;56301;56.864;60.554;2023-01-10T06:52:59;100425.34;;;24.73;25.83
69187;BME280;56301;56.864;60.554;2023-01-10T06:55:21;100419.94;;;24.73;25.43
69187;BME280;56301;56.864;60.554;2023-01-10T06:57:44;100413.50;;;24.74;25.45
69187;BME280;56301;56.864;60.554;2023-01-10T07:00:07;100418.63;;;24.78;25.53
69187;BME280;56301;56.864;60.554;2023-01-10T07:02:30;100426.88;;;24.86;25.65
69187;BME280;56301;56.864;60.554;2023-01-10T07:04:52;100433.88;;;24.88;25.20
69187;BME280;56301;56.864;60.554;2023-01-10T07:07:15;100432.00;;;24.89;24.12
69187;BME280;56301;56.864;60.554;2023-01-10T07:09:38;100434.44;;;24.92;23.92
69187;BME280;56301;56.864;60.554;2023-01-10T07:12:00;100446.41;;;24.89;24.24
69187;BME280;56301;56.864;60.554;2023-01-10T07:14:22;100453.28;;;24.84;24.10
69187;BME280;56301;56.864;60.554;2023-01-10T07:16:46;100447.13;;;24.82;24.26
69187;BME280;56301;56.864;60.554;2023-01-10T07:19:08;100450.13;;;24.79;24.15
69187;BME280;56301;56.864;60.554;2023-01-10T07:21:31;100444.97;;;24.76;23.88
69187;BME280;56301;56.864;60.554;2023-01-10T07:23:53;100452.25;;;24.75;24.16
69187;BME280;56301;56.864;60.554;2023-01-10T07:26:16;100449.56;;;24.75;24.12
69187;BME280;56301;56.864;60.554;2023-01-10T07:28:39;100449.72;;;24.73;24.33
69187;BME280;56301;56.864;60.554;2023-01-10T07:31:02;100445.25;;;24.72;23.48
69187;BME280;56301;56.864;60.554;2023-01-10T07:33:26;100445.25;;;24.72;24.37
69187;BME280;56301;56.864;60.554;2023-01-10T07:35:48;100447.13;;;24.72;24.03
69187;BME280;56301;56.864;60.554;2023-01-10T07:38:11;100447.13;;;24.72;24.09
69187;BME280;56301;56.864;60.554;2023-01-10T07:40:33;100460.66;;;24.72;24.52
69187;BME280;56301;56.864;60.554;2023-01-10T07:42:56;100456.97;;;24.73;24.36
69187;BME280;56301;56.864;60.554;2023-01-10T07:45:19;100455.97;;;24.74;23.81
69187;BME280;56301;56.864;60.554;2023-01-10T07:47:42;100453.97;;;24.76;23.82
69187;BME280;56301;56.864;60.554;2023-01-10T07:50:04;100437.72;;;24.76;23.79
69187;BME280;56301;56.864;60.554;2023-01-10T07:52:27;100441.00;;;24.80;23.82
69187;BME280;56301;56.864;60.554;2023-01-10T07:54:49;100450.41;;;24.95;23.83
69187;BME280;56301;56.864;60.554;2023-01-10T07:57:12;100461.34;;;25.23;23.48
69187;BME280;56301;56.864;60.554;2023-01-10T07:59:34;100455.59;;;25.45;24.21
69187;BME280;56301;56.864;60.554;2023-01-10T08:01:56;100455.72;;;25.53;23.91
69187;BME280;56301;56.864;60.554;2023-01-10T08:04:19;100456.84;;;25.60;23.49
69187;BME280;56301;56.864;60.554;2023-01-10T08:06:41;100453.97;;;25.62;24.43
69187;BME280;56301;56.864;60.554;2023-01-10T08:09:04;100456.13;;;25.58;23.42
69187;BME280;56301;56.864;60.554;2023-01-10T08:11:26;100456.41;;;25.55;23.96
69187;BME280;56301;56.864;60.554;2023-01-10T08:13:49;100462.84;;;25.54;24.38
69187;BME280;56301;56.864;60.554;2023-01-10T08:16:11;100453.13;;;25.61;24.00
69187;BME280;56301;56.864;60.554;2023-01-10T08:18:33;100454.78;;;25.72;24.67
69187;BME280;56301;56.864;60.554;2023-01-10T08:20:56;100450.75;;;25.86;24.98
69187;BME280;56301;56.864;60.554;2023-01-10T08:23:19;100439.44;;;25.90;24.99
69187;BME280;56301;56.864;60.554;2023-01-10T08:25:41;100443.00;;;25.91;24.60
69187;BME280;56301;56.864;60.554;2023-01-10T08:28:04;100440.84;;;25.95;24.63
69187;BME280;56301;56.864;60.554;2023-01-10T08:30:26;100450.56;;;25.97;25.35
69187;BME280;56301;56.864;60.554;2023-01-10T08:32:49;100452.97;;;26.00;25.22
69187;BME280;56301;56.864;60.554;2023-01-10T08:35:12;100445.69;;;26.01;24.84
69187;BME280;56301;56.864;60.554;2023-01-10T08:37:34;100454.91;;;26.08;25.03
69187;BME280;56301;56.864;60.554;2023-01-10T08:39:57;100434.31;;;26.15;25.31
69187;BME280;56301;56.864;60.554;2023-01-10T08:42:19;100451.59;;;26.14;25.57
69187;BME280;56301;56.864;60.554;2023-01-10T08:44:42;100444.06;;;26.08;25.04
69187;BME280;56301;56.864;60.554;2023-01-10T08:47:04;100437.81;;;26.07;25.58
69187;BME280;56301;56.864;60.554;2023-01-10T08:49:27;100436.38;;;26.03;25.94
69187;BME280;56301;56.864;60.554;2023-01-10T08:51:49;100442.41;;;25.97;25.62
69187;BME280;56301;56.864;60.554;2023-01-10T08:54:11;100448.13;;;25.94;25.76
69187;BME280;56301;56.864;60.554;2023-01-10T08:56:34;100446.31;;;25.85;24.75
69187;BME280;56301;56.864;60.554;2023-01-10T08:58:56;100451.06;;;25.73;25.11
69187;BME280;56301;56.864;60.554;2023-01-10T09:01:19;100454.81;;;25.62;25.10
69187;BME280;56301;56.864;60.554;2023-01-10T09:03:41;100450.31;;;25.53;24.98
69187;BME280;56301;56.864;60.554;2023-01-10T09:06:04;100452.31;;;25.41;25.50
69187;BME280;56301;56.864;60.554;2023-01-10T09:08:27;100459.63;;;25.31;24.97
69187;BME280;56301;56.864;60.554;2023-01-10T09:10:49;100450.22;;;25.26;25.34
69187;BME280;56301;56.864;60.554;2023-01-10T09:13:12;100448.94;;;25.20;25.39
69187;BME280;56301;56.864;60.554;2023-01-10T09:15:34;100450.41;;;25.14;26.04
69187;BME280;56301;56.864;60.554;2023-01-10T09:18:02;100461.22;;;25.14;25.80
69187;BME280;56301;56.864;60.554;2023-01-10T09:20:25;100460.38;;;25.14;26.04
69187;BME280;56301;56.864;60.554;2023-01-10T09:22:48;100459.25;;;25.16;25.48
69187;BME280;56301;56.864;60.554;2023-01-10T09:25:11;100461.94;;;25.16;25.73
69187;BME280;56301;56.864;60.554;2023-01-10T09:27:33;100459.66;;;25.12;25.68
69187;BME280;56301;56.864;60.554;2023-01-10T09:29:55;100462.94;;;25.06;25.45
69187;BME280;56301;56.864;60.554;2023-01-10T09:32:18;100465.19;;;25.01;25.90
69187;BME280;56301;56.864;60.554;2023-01-10T09:34:41;100471.06;;;24.96;26.25
69187;BME280;56301;56.864;60.554;2023-01-10T09:37:03;100461.53;;;24.92;25.85
69187;BME280;56301;56.864;60.554;2023-01-10T09:39:26;100467.22;;;24.89;26.23
69187;BME280;56301;56.864;60.554;2023-01-10T09:44:19;100462.53;;;24.81;26.26
69187;BME280;56301;56.864;60.554;2023-01-10T09:51:49;100464.66;;;24.68;26.59
69187;BME280;56301;56.864;60.554;2023-01-10T09:54:14;100463.22;;;24.64;26.27
69187;BME280;56301;56.864;60.554;2023-01-10T09:56:37;100467.22;;;24.60;26.30
69187;BME280;56301;56.864;60.554;2023-01-10T09:59:00;100463.94;;;24.56;26.47
69187;BME280;56301;56.864;60.554;2023-01-10T10:01:26;100465.06;;;24.54;26.69
69187;BME280;56301;56.864;60.554;2023-01-10T10:03:52;100462.63;;;24.50;26.76
69187;BME280;56301;56.864;60.554;2023-01-10T10:06:15;100468.34;;;24.47;26.47
69187;BME280;56301;56.864;60.554;2023-01-10T10:08:42;100469.47;;;24.45;26.46
69187;BME280;56301;56.864;60.554;2023-01-10T10:28:49;100460.94;;;24.59;27.38
69187;BME280;56301;56.864;60.554;2023-01-10T10:36:17;100455.97;;;24.84;27.14
69187;BME280;56301;56.864;60.554;2023-01-10T10:38:42;100467.22;;;24.89;27.55
69187;BME280;56301;56.864;60.554;2023-01-10T10:41:08;100468.78;;;24.91;26.61
69187;BME280;56301;56.864;60.554;2023-01-10T10:43:34;100478.34;;;24.95;26.67
69187;BME280;56301;56.864;60.554;2023-01-10T10:46:13;100474.47;;;24.98;27.06
69187;BME280;56301;56.864;60.554;2023-01-10T10:48:38;100479.59;;;25.01;27.08
69187;BME280;56301;56.864;60.554;2023-01-10T10:51:03;100489.28;;;25.04;26.89
69187;BME280;56301;56.864;60.554;2023-01-10T10:53:28;100482.88;;;25.05;26.11
69187;BME280;56301;56.864;60.554;2023-01-10T10:55:52;100504.41;;;25.06;26.84
69187;BME280;56301;56.864;60.554;2023-01-10T10:58:15;100503.41;;;25.07;27.26
69187;BME280;56301;56.864;60.554;2023-01-10T11:00:37;100488.84;;;25.08;26.76
69187;BME280;56301;56.864;60.554;2023-01-10T11:05:42;100496.28;;;25.06;26.04
69187;BME280;56301;56.864;60.554;2023-01-10T11:08:08;100495.72;;;25.03;25.43
69187;BME280;56301;56.864;60.554;2023-01-10T11:10:30;100503.97;;;25.01;25.05
69187;BME280;56301;56.864;60.554;2023-01-10T11:12:54;100509.38;;;25.01;25.15
69187;BME280;56301;56.864;60.554;2023-01-10T11:18:19;100505.69;;;25.02;26.40
69187;BME280;56301;56.864;60.554;2023-01-10T11:20:49;100509.53;;;25.00;25.49
69187;BME280;56301;56.864;60.554;2023-01-10T11:23:20;100511.41;;;24.99;26.15
69187;BME280;56301;56.864;60.554;2023-01-10T11:25:44;100510.81;;;24.95;25.97
69187;BME280;56301;56.864;60.554;2023-01-10T11:28:11;100515.50;;;24.93;26.12
69187;BME280;56301;56.864;60.554;2023-01-10T11:30:35;100533.63;;;24.93;25.96
69187;BME280;56301;56.864;60.554;2023-01-10T11:33:02;100530.91;;;24.93;25.64
69187;BME280;56301;56.864;60.554;2023-01-10T11:40:40;100525.34;;;24.94;25.57
69187;BME280;56301;56.864;60.554;2023-01-10T11:43:47;100527.19;;;24.94;25.84
69187;BME280;56301;56.864;60.554;2023-01-10T11:46:11;100527.06;;;24.95;25.83
69187;BME280;56301;56.864;60.554;2023-01-10T11:48:42;100536.19;;;24.94;25.78
69187;BME280;56301;56.864;60.554;2023-01-10T11:51:12;100526.50;;;24.92;26.03
69187;BME280;56301;56.864;60.554;2023-01-10T11:53:38;100542.75;;;24.92;26.62
69187;BME280;56301;56.864;60.554;2023-01-10T11:56:01;100533.78;;;24.91;26.16
69187;BME280;56301;56.864;60.554;2023-01-10T11:58:28;100546.44;;;24.91;26.26
69187;BME280;56301;56.864;60.554;2023-01-10T12:00:51;100551.84;;;24.91;26.29
69187;BME280;56301;56.864;60.554;2023-01-10T12:03:20;100554.56;;;24.91;26.33
69187;BME280;56301;56.864;60.554;2023-01-10T12:06:04;100559.13;;;24.90;26.05
69187;BME280;56301;56.864;60.554;2023-01-10T12:08:29;100560.97;;;24.90;26.24
69187;BME280;56301;56.864;60.554;2023-01-10T12:10:56;100564.41;;;24.92;26.45
69187;BME280;56301;56.864;60.554;2023-01-10T12:13:19;100560.69;;;24.93;26.81
69187;BME280;56301;56.864;60.554;2023-01-10T12:15:41;100565.38;;;24.91;26.38
69187;BME280;56301;56.864;60.554;2023-01-10T12:18:04;100566.41;;;24.90;26.62
69187;BME280;56301;56.864;60.554;2023-01-10T12:20:29;100568.09;;;24.91;26.60
69187;BME280;56301;56.864;60.554;2023-01-10T12:22:57;100561.81;;;24.90;26.33
69187;BME280;56301;56.864;60.554;2023-01-10T12:25:21;100568.09;;;24.91;26.52
69187;BME280;56301;56.864;60.554;2023-01-10T12:27:46;100567.25;;;24.90;26.80
69187;BME280;56301;56.864;60.554;2023-01-10T12:30:14;100560.13;;;24.89;26.85
69187;BME280;56301;56.864;60.554;2023-01-10T12:32:43;100560.13;;;24.89;26.93
69187;BME280;56301;56.864;60.554;2023-01-10T12:35:20;100563.84;;;24.88;26.57
69187;BME280;56301;56.864;60.554;2023-01-10T12:37:46;100564.69;;;24.89;26.82
69187;BME280;56301;56.864;60.554;2023-01-10T12:47:31;100587.34;;;24.88;26.61
69187;BME280;56301;56.864;60.554;2023-01-10T12:50:04;100558.69;;;24.85;26.35
69187;BME280;56301;56.864;60.554;2023-01-10T12:52:30;100560.41;;;24.86;25.57
69187;BME280;56301;56.864;60.554;2023-01-10T12:54:54;100568.53;;;24.86;25.50
69187;BME280;56301;56.864;60.554;2023-01-10T12:57:50;100571.22;;;24.86;25.16
69187;BME280;56301;56.864;60.554;2023-01-10T13:00:06;100567.84;;;24.84;25.13
69187;BME280;56301;56.864;60.554;2023-01-10T13:02:37;100574.94;;;24.85;24.92
69187;BME280;56301;56.864;60.554;2023-01-10T13:05:01;100572.41;;;24.84;25.31
69187;BME280;56301;56.864;60.554;2023-01-10T13:07:26;100586.91;;;24.83;25.02
69187;BME280;56301;56.864;60.554;2023-01-10T13:09:50;100592.31;;;24.83;24.78
69187;BME280;56301;56.864;60.554;2023-01-10T13:12:15;100590.63;;;24.82;25.19
69187;BME280;56301;56.864;60.554;2023-01-10T13:14:45;100593.31;;;24.82;24.75
69187;BME280;56301;56.864;60.554;2023-01-10T13:22:37;100587.19;;;24.80;24.35
69187;BME280;56301;56.864;60.554;2023-01-10T13:25:00;100609.72;;;24.80;25.27
69187;BME280;56301;56.864;60.554;2023-01-10T13:27:25;100607.00;;;24.80;24.77
69187;BME280;56301;56.864;60.554;2023-01-10T13:29:50;100610.56;;;24.81;25.34
69187;BME280;56301;56.864;60.554;2023-01-10T13:32:20;100616.00;;;24.81;26.20
69187;BME280;56301;56.864;60.554;2023-01-10T13:34:44;100615.13;;;24.80;25.09
69187;BME280;56301;56.864;60.554;2023-01-10T13:37:20;100619.66;;;24.80;25.34
69187;BME280;56301;56.864;60.554;2023-01-10T13:39:44;100621.41;;;24.81;26.21
69187;BME280;56301;56.864;60.554;2023-01-10T13:50:01;100616.00;;;24.81;26.46
69187;BME280;56301;56.864;60.554;2023-01-10T13:52:44;100620.56;;;24.80;26.00
69187;BME280;56301;56.864;60.554;2023-01-10T13:57:48;100635.22;;;24.78;25.93
69187;BME280;56301;56.864;60.554;2023-01-10T14:00:19;100633.50;;;24.77;25.58